Time;durP1;ratioP1;P1;durP2;ratioP2;P2;SDS_P1;SDS_P2;PMS_P1;PMS_P2;Temp;Humidity;BMP_temperature;BMP_pressure;BME280_temperature;BME280_humidity;BME280_pressure;Samples;Min_cycle;Max_cycle;Signal;HPM_P1;HPM_P2
2022/06/17 00:01:20;;;;;;;0.80;0.80;;;18.90;99.90;;;;;;5024970;28;20482;-66
2022/06/17 00:03:48;;;;;;;0.40;0.30;;;18.80;99.90;;;;;;5025644;28;20469;-66
2022/06/17 00:06:14;;;;;;;0.40;0.20;;;18.70;99.90;;;;;;5051673;28;20392;-67
2022/06/17 00:08:44;;;;;;;0.80;0.80;;;18.70;99.90;;;;;;5052638;28;20385;-66
2022/06/17 00:11:17;;;;;;;0.40;0.20;;;18.60;99.90;;;;;;5051633;28;20416;-66
2022/06/17 00:13:42;;;;;;;0.40;0.40;;;18.50;99.90;;;;;;5052156;28;20378;-66
2022/06/17 00:16:14;;;;;;;0.40;0.30;;;18.40;99.90;;;;;;5051451;28;20440;-66
2022/06/17 00:18:41;;;;;;;0.40;0.20;;;18.30;99.90;;;;;;5051640;28;20409;-66
2022/06/17 00:21:22;;;;;;;0.40;0.30;;;18.30;99.90;;;;;;5051318;28;20390;-66
2022/06/17 00:23:48;;;;;;;0.40;0.30;;;18.30;99.90;;;;;;5052088;28;20416;-67
2022/06/17 00:26:14;;;;;;;0.40;0.30;;;18.20;99.90;;;;;;5051416;28;20404;-66
2022/06/17 00:28:39;;;;;;;0.75;0.75;;;18.20;99.90;;;;;;5029724;28;20404;-66
2022/06/17 00:31:05;;;;;;;0.40;0.38;;;18.10;99.90;;;;;;5013658;28;20384;-66
2022/06/17 00:33:31;;;;;;;0.40;0.30;;;18.20;99.90;;;;;;5012024;28;20471;-67
2022/06/17 00:35:57;;;;;;;0.40;0.30;;;18.20;99.90;;;;;;5011981;28;20420;-67
2022/06/17 00:38:30;;;;;;;0.40;0.30;;;18.20;99.90;;;;;;5011134;28;21333;-66
2022/06/17 00:40:58;;;;;;;0.40;0.30;;;18.30;99.90;;;;;;5012293;28;21162;-67
2022/06/17 00:43:27;;;;;;;0.80;0.80;;;18.20;99.90;;;;;;5010902;28;21142;-66
2022/06/17 00:46:05;;;;;;;1.00;0.60;;;18.10;99.90;;;;;;5012163;28;20397;-66
2022/06/17 00:48:38;;;;;;;0.40;0.20;;;18.00;99.90;;;;;;5011726;28;20407;-66
2022/06/17 00:51:13;;;;;;;0.40;0.30;;;18.00;99.90;;;;;;5011822;28;20381;-66
2022/06/17 00:53:59;;;;;;;0.40;0.40;;;18.10;99.90;;;;;;5012007;28;20389;-66
2022/06/17 00:56:28;;;;;;;0.70;0.70;;;18.10;99.90;;;;;;5010963;28;20435;-66
2022/06/17 00:59:06;;;;;;;0.60;0.60;;;17.90;99.90;;;;;;5024047;28;20407;-66
2022/06/17 01:01:44;;;;;;;0.80;0.60;;;17.80;99.90;;;;;;5031147;28;20791;-66
2022/06/17 01:04:11;;;;;;;0.40;0.30;;;17.80;99.90;;;;;;5029574;28;20410;-66
2022/06/17 01:06:42;;;;;;;0.40;0.30;;;17.90;99.90;;;;;;5031436;28;20384;-68
2022/06/17 01:12:02;;;;;;;0.40;0.30;;;17.80;99.90;;;;;;5031165;28;20960;-66
2022/06/17 01:14:29;;;;;;;0.40;0.40;;;17.80;99.90;;;;;;5030365;28;20464;-66
2022/06/17 01:16:57;;;;;;;0.40;0.30;;;17.80;99.90;;;;;;5031088;28;20398;-67
2022/06/17 01:19:39;;;;;;;0.40;0.30;;;17.90;99.90;;;;;;5029983;28;20403;-66
2022/06/17 01:22:10;;;;;;;0.40;0.30;;;17.80;99.90;;;;;;5031258;28;20398;-66
2022/06/17 01:24:36;;;;;;;0.60;0.40;;;17.70;99.90;;;;;;5031072;28;20474;-67
2022/06/17 01:27:02;;;;;;;0.40;0.20;;;17.70;99.90;;;;;;5030847;28;20474;-66
2022/06/17 01:29:28;;;;;;;0.50;0.50;;;17.60;99.90;;;;;;5030106;28;20424;-66
2022/06/17 01:32:03;;;;;;;1.00;0.70;;;17.60;99.90;;;;;;5030988;28;20935;-67
2022/06/17 01:34:29;;;;;;;0.50;0.50;;;17.70;99.90;;;;;;5029787;28;20375;-66
2022/06/17 01:36:55;;;;;;;0.40;0.30;;;17.80;99.90;;;;;;5031034;28;20859;-66
2022/06/17 01:39:21;;;;;;;0.40;0.30;;;17.70;99.90;;;;;;5036365;28;20381;-66
2022/06/17 01:41:48;;;;;;;0.40;0.20;;;17.80;99.90;;;;;;5050675;28;20428;-67
2022/06/17 01:44:19;;;;;;;1.20;1.10;;;17.90;99.90;;;;;;5049910;28;20373;-66
2022/06/17 01:46:49;;;;;;;0.40;0.30;;;17.90;99.90;;;;;;5050857;28;20766;-66
2022/06/17 01:49:18;;;;;;;0.40;0.30;;;17.80;99.90;;;;;;5049483;28;20892;-66
2022/06/17 01:51:51;;;;;;;0.40;0.20;;;17.80;99.90;;;;;;5050580;28;20390;-66
2022/06/17 01:54:23;;;;;;;0.40;0.40;;;17.80;99.90;;;;;;5049810;28;20417;-66
2022/06/17 01:56:53;;;;;;;0.50;0.40;;;17.80;99.90;;;;;;5050668;28;20405;-66
2022/06/17 01:59:34;;;;;;;0.40;0.30;;;17.80;99.90;;;;;;5033706;28;20387;-66
2022/06/17 02:02:01;;;;;;;0.40;0.30;;;17.80;99.90;;;;;;5030433;28;20936;-66
2022/06/17 02:04:34;;;;;;;0.40;0.30;;;17.90;99.90;;;;;;5029469;28;20392;-66
2022/06/17 02:07:06;;;;;;;0.40;0.30;;;17.80;99.90;;;;;;5030498;28;20391;-66
2022/06/17 02:09:31;;;;;;;0.40;0.30;;;17.60;99.90;;;;;;5029317;28;20487;-66
2022/06/17 02:12:00;;;;;;;0.40;0.20;;;17.60;99.90;;;;;;5030517;28;20387;-66
2022/06/17 02:14:26;;;;;;;0.40;0.20;;;17.60;99.90;;;;;;5029572;28;20848;-66
2022/06/17 02:16:54;;;;;;;0.40;0.30;;;17.70;99.90;;;;;;5033541;28;20426;-66
2022/06/17 02:19:23;;;;;;;0.40;0.30;;;17.60;99.90;;;;;;5033345;28;20438;-66
2022/06/17 02:21:59;;;;;;;0.60;0.60;;;17.50;99.90;;;;;;5034555;28;20491;-67
2022/06/17 02:24:26;;;;;;;0.40;0.20;;;17.30;99.90;;;;;;5034018;28;20383;-66
2022/06/17 02:26:53;;;;;;;0.40;0.30;;;17.30;99.90;;;;;;5034281;28;20394;-66
2022/06/17 02:29:20;;;;;;;0.50;0.50;;;17.30;99.90;;;;;;5033680;28;20445;-66
2022/06/17 02:31:47;;;;;;;0.40;0.30;;;17.20;99.90;;;;;;5034367;28;20375;-66
2022/06/17 02:34:16;;;;;;;0.40;0.20;;;17.10;99.90;;;;;;5033769;28;20397;-66
2022/06/17 02:36:52;;;;;;;0.50;0.43;;;17.10;99.90;;;;;;5034079;28;20443;-66
2022/06/17 02:39:18;;;;;;;0.60;0.50;;;17.00;99.90;;;;;;5033670;28;20393;-66
2022/06/17 02:41:46;;;;;;;0.40;0.30;;;17.00;99.90;;;;;;5033997;28;20461;-66
2022/06/17 02:44:22;;;;;;;0.60;0.50;;;16.90;99.90;;;;;;5033512;28;20457;-66
2022/06/17 02:46:50;;;;;;;0.40;0.30;;;17.00;99.90;;;;;;5033998;28;20739;-66
2022/06/17 02:49:22;;;;;;;0.40;0.20;;;16.90;99.90;;;;;;5033265;28;20390;-66
2022/06/17 02:51:49;;;;;;;0.40;0.30;;;16.90;99.90;;;;;;5033935;28;20421;-66
2022/06/17 02:54:21;;;;;;;0.40;0.20;;;16.90;99.90;;;;;;5033097;28;20934;-66
2022/06/17 02:56:50;;;;;;;0.40;0.20;;;16.70;99.90;;;;;;5033473;28;20457;-66
2022/06/17 02:59:26;;;;;;;0.40;0.30;;;16.60;99.90;;;;;;5017686;28;20393;-66
2022/06/17 03:01:58;;;;;;;0.40;0.30;;;16.60;99.90;;;;;;5013791;28;20405;-66
2022/06/17 03:04:28;;;;;;;0.40;0.30;;;16.60;99.90;;;;;;5013300;28;20385;-66
2022/06/17 03:06:54;;;;;;;0.40;0.20;;;16.60;99.90;;;;;;5013834;28;20896;-66
2022/06/17 03:09:27;;;;;;;0.57;0.47;;;16.50;99.90;;;;;;5012915;28;20416;-66
2022/06/17 03:12:14;;;;;;;0.40;0.30;;;16.60;99.90;;;;;;5013867;28;20424;-66
2022/06/17 03:14:57;;;;;;;0.40;0.20;;;16.60;99.90;;;;;;5013319;28;20385;-66
2022/06/17 03:17:24;;;;;;;0.40;0.30;;;16.50;99.90;;;;;;5012827;28;20413;-66
2022/06/17 03:19:53;;;;;;;0.40;0.22;;;16.60;99.90;;;;;;5013525;28;20435;-66
2022/06/17 03:22:19;;;;;;;0.50;0.40;;;16.50;99.90;;;;;;5012555;28;20443;-66
2022/06/17 03:24:57;;;;;;;0.40;0.30;;;16.50;99.90;;;;;;5013590;28;20389;-66
2022/06/17 03:27:40;;;;;;;0.60;0.60;;;16.40;99.90;;;;;;5011539;28;20412;-66
2022/06/17 03:30:06;;;;;;;0.70;0.50;;;16.40;99.90;;;;;;5013519;28;20373;-66
2022/06/17 03:32:40;;;;;;;0.50;0.50;;;16.40;99.90;;;;;;5012483;28;20407;-66
2022/06/17 03:35:14;;;;;;;0.60;0.60;;;16.50;99.90;;;;;;5013671;28;20408;-67
2022/06/17 03:37:58;;;;;;;0.80;0.80;;;16.40;99.90;;;;;;5012870;28;20471;-67
2022/06/17 03:40:34;;;;;;;0.40;0.30;;;16.40;99.90;;;;;;5012760;28;20395;-66
2022/06/17 03:43:24;;;;;;;0.50;0.50;;;16.40;99.90;;;;;;5013578;28;20389;-66
2022/06/17 03:45:55;;;;;;;0.40;0.30;;;16.30;99.90;;;;;;5013237;28;20393;-66
2022/06/17 03:48:47;;;;;;;0.40;0.20;;;16.20;99.90;;;;;;5012359;28;20448;-66
2022/06/17 03:51:20;;;;;;;0.40;0.30;;;16.30;99.90;;;;;;5008136;28;20789;-66
2022/06/17 03:53:46;;;;;;;0.80;0.80;;;16.40;99.90;;;;;;5013268;28;20818;-66
2022/06/17 03:56:20;;;;;;;0.40;0.30;;;16.50;99.90;;;;;;5013078;28;20424;-66
2022/06/17 03:58:47;;;;;;;0.40;0.30;;;16.40;99.90;;;;;;5024313;28;20387;-66
2022/06/17 04:01:18;;;;;;;0.40;0.27;;;16.40;99.90;;;;;;5032455;28;20402;-66
2022/06/17 04:03:52;;;;;;;0.40;0.30;;;16.40;99.90;;;;;;5032960;28;20395;-66
2022/06/17 04:06:23;;;;;;;0.40;0.25;;;16.50;99.90;;;;;;5031833;28;20751;-66
2022/06/17 04:09:02;;;;;;;0.40;0.25;;;16.40;99.90;;;;;;5032047;28;20477;-66
2022/06/17 04:11:34;;;;;;;0.40;0.30;;;16.50;99.90;;;;;;5034841;28;20397;-66
2022/06/17 04:14:04;;;;;;;0.40;0.20;;;16.40;99.90;;;;;;5031446;28;20940;-66
2022/06/17 04:16:47;;;;;;;0.40;0.20;;;16.50;99.90;;;;;;5034311;28;20897;-66
2022/06/17 04:19:17;;;;;;;0.40;0.20;;;16.40;99.90;;;;;;5034237;28;20482;-66
2022/06/17 04:21:43;;;;;;;0.73;0.73;;;16.50;99.90;;;;;;5032828;28;20437;-66
2022/06/17 04:24:14;;;;;;;0.40;0.20;;;16.50;99.90;;;;;;5027149;28;20401;-66
2022/06/17 04:26:41;;;;;;;0.40;0.20;;;16.50;99.90;;;;;;5031024;28;20513;-66
2022/06/17 04:29:12;;;;;;;0.40;0.20;;;16.60;99.90;;;;;;5025750;28;20385;-66
2022/06/17 04:31:38;;;;;;;0.40;0.20;;;16.70;99.90;;;;;;5021458;28;20458;-66
2022/06/17 04:34:06;;;;;;;0.40;0.30;;;16.70;99.90;;;;;;5022416;28;20823;-66
2022/06/17 04:36:52;;;;;;;0.40;0.30;;;16.80;99.90;;;;;;5022284;28;20458;-67
2022/06/17 04:39:43;;;;;;;0.40;0.20;;;16.80;99.90;;;;;;5026879;28;20453;-66
2022/06/17 04:42:32;;;;;;;0.40;0.20;;;16.90;99.90;;;;;;5032050;28;20398;-66
2022/06/17 04:44:58;;;;;;;0.40;0.30;;;16.90;99.90;;;;;;5012389;28;20396;-67
2022/06/17 04:47:24;;;;;;;0.40;0.20;;;17.10;99.90;;;;;;5014015;28;20420;-66
2022/06/17 04:49:56;;;;;;;0.40;0.30;;;17.10;99.90;;;;;;5028149;28;20874;-66
2022/06/17 04:52:28;;;;;;;0.40;0.30;;;17.20;99.90;;;;;;5030550;28;20864;-66
2022/06/17 04:54:58;;;;;;;0.40;0.30;;;17.20;99.90;;;;;;5031906;28;20390;-67
2022/06/17 04:57:29;;;;;;;0.80;0.80;;;17.20;99.90;;;;;;5030532;28;20391;-66
2022/06/17 04:59:58;;;;;;;0.40;0.20;;;17.40;99.90;;;;;;5012147;28;20439;-66
2022/06/17 05:02:27;;;;;;;0.40;0.20;;;17.30;99.90;;;;;;5011185;28;20475;-66
2022/06/17 05:04:57;;;;;;;0.40;0.30;;;17.30;99.90;;;;;;5031361;28;20860;-66
2022/06/17 05:07:29;;;;;;;0.40;0.40;;;17.40;99.90;;;;;;5030734;28;20441;-65
2022/06/17 05:10:01;;;;;;;0.40;0.30;;;17.50;99.90;;;;;;5031783;28;20379;-66
2022/06/17 05:12:31;;;;;;;0.70;0.70;;;17.40;99.90;;;;;;5030504;28;20406;-66
2022/06/17 05:15:01;;;;;;;0.40;0.20;;;17.30;99.90;;;;;;5031360;28;20391;-66
2022/06/17 05:17:28;;;;;;;0.45;0.40;;;17.40;99.90;;;;;;5030369;28;20847;-66
2022/06/17 05:19:53;;;;;;;0.63;0.63;;;17.40;99.90;;;;;;5031294;28;20806;-66
2022/06/17 05:22:29;;;;;;;0.40;0.30;;;17.40;99.90;;;;;;5031173;28;20413;-65
2022/06/17 05:24:55;;;;;;;0.40;0.30;;;17.50;99.90;;;;;;5011552;28;20719;-65
2022/06/17 05:27:20;;;;;;;0.70;0.70;;;17.50;99.90;;;;;;5011196;28;20434;-66
2022/06/17 05:29:46;;;;;;;0.40;0.20;;;17.40;99.90;;;;;;5011472;28;20377;-66
2022/06/17 05:32:16;;;;;;;0.40;0.40;;;17.40;99.90;;;;;;5011421;28;20400;-66
2022/06/17 05:34:41;;;;;;;0.50;0.50;;;17.40;99.90;;;;;;5029335;28;20387;-65
2022/06/17 05:37:08;;;;;;;0.50;0.50;;;17.50;99.90;;;;;;5031025;28;20445;-66
2022/06/17 05:39:33;;;;;;;0.50;0.40;;;17.50;99.90;;;;;;5030055;28;20433;-66
2022/06/17 05:41:59;;;;;;;0.40;0.30;;;17.70;99.90;;;;;;5030666;28;20872;-65
2022/06/17 05:44:26;;;;;;;0.40;0.30;;;17.90;99.90;;;;;;5030156;28;20411;-65
2022/06/17 05:46:52;;;;;;;0.40;0.30;;;18.00;99.90;;;;;;5030840;28;20419;-65
2022/06/17 05:49:17;;;;;;;0.60;0.60;;;18.20;99.90;;;;;;5029767;28;20395;-66
2022/06/17 05:51:43;;;;;;;0.40;0.20;;;18.20;99.90;;;;;;5010309;28;20476;-65
2022/06/17 05:54:09;;;;;;;0.70;0.70;;;18.20;99.90;;;;;;5026902;28;20402;-66
2022/06/17 05:56:35;;;;;;;0.40;0.30;;;18.40;99.90;;;;;;5028691;28;20468;-66
2022/06/17 05:59:00;;;;;;;0.40;0.20;;;18.40;99.90;;;;;;5030298;28;20402;-66
2022/06/17 06:01:26;;;;;;;0.40;0.30;;;18.60;99.90;;;;;;5024738;28;20721;-67
2022/06/17 06:03:52;;;;;;;0.40;0.20;;;18.60;99.90;;;;;;5011072;28;20493;-67
2022/06/17 06:06:17;;;;;;;0.50;0.50;;;18.60;99.90;;;;;;5017495;28;20395;-66
2022/06/17 06:08:43;;;;;;;0.40;0.30;;;18.60;99.90;;;;;;5017589;28;20388;-66
2022/06/17 06:11:09;;;;;;;0.40;0.30;;;18.60;99.90;;;;;;5019552;28;20794;-66
2022/06/17 06:13:35;;;;;;;0.40;0.20;;;18.60;99.90;;;;;;5029891;28;20394;-66
2022/06/17 06:16:01;;;;;;;0.40;0.30;;;18.70;99.90;;;;;;5030631;28;20497;-66
2022/06/17 06:18:33;;;;;;;0.40;0.30;;;18.60;99.90;;;;;;5023512;28;20409;-66
2022/06/17 06:21:04;;;;;;;0.40;0.30;;;18.60;99.90;;;;;;5013564;28;20395;-66
2022/06/17 06:23:38;;;;;;;0.40;0.30;;;18.50;99.90;;;;;;5018844;28;20385;-66
2022/06/17 06:26:05;;;;;;;0.40;0.22;;;18.60;99.90;;;;;;5011212;28;20734;-65
2022/06/17 06:28:31;;;;;;;0.40;0.20;;;18.60;99.90;;;;;;5010734;28;20451;-65
2022/06/17 06:31:00;;;;;;;0.40;0.20;;;18.60;99.90;;;;;;5014798;28;20404;-66
2022/06/17 06:33:25;;;;;;;0.70;0.35;;;18.60;99.90;;;;;;5024830;28;20404;-65
2022/06/17 06:35:51;;;;;;;0.40;0.30;;;18.70;99.90;;;;;;5014746;28;20909;-65
2022/06/17 06:38:17;;;;;;;0.40;0.20;;;18.80;99.90;;;;;;5017534;28;20745;-67
2022/06/17 06:40:43;;;;;;;0.40;0.20;;;19.00;99.30;;;;;;5009965;28;20400;-65
2022/06/17 06:43:17;;;;;;;0.40;0.30;;;19.00;99.60;;;;;;5010667;28;20385;-66
2022/06/17 06:45:45;;;;;;;0.40;0.30;;;19.00;99.10;;;;;;5015098;28;20396;-65
2022/06/17 06:48:13;;;;;;;0.40;0.30;;;19.10;98.80;;;;;;5026158;28;20498;-65
2022/06/17 06:50:39;;;;;;;0.40;0.30;;;19.30;99.20;;;;;;5026813;28;20396;-65
2022/06/17 06:53:08;;;;;;;0.40;0.30;;;19.30;98.20;;;;;;5010660;28;20389;-66
2022/06/17 06:55:38;;;;;;;0.40;0.30;;;19.40;98.80;;;;;;5014751;28;20880;-66
2022/06/17 06:58:17;;;;;;;1.13;1.02;;;19.40;99.20;;;;;;5026117;28;20391;-67
2022/06/17 07:01:37;;;;;;;0.40;0.30;;;19.40;98.70;;;;;;5025012;28;20409;-66
2022/06/17 07:07:46;;;;;;;0.40;0.30;;;19.70;97.10;;;;;;4918704;29;20895;-67
2022/06/17 07:10:16;;;;;;;0.60;0.60;;;19.60;97.10;;;;;;4959217;28;20424;-67
2022/06/17 07:12:42;;;;;;;0.40;0.20;;;19.80;95.50;;;;;;5031899;28;20399;-67
2022/06/17 07:15:10;;;;;;;0.40;0.22;;;20.00;95.90;;;;;;5046327;28;20773;-67
2022/06/17 07:17:35;;;;;;;0.75;0.75;;;20.00;94.50;;;;;;5030544;28;20502;-67
2022/06/17 07:20:02;;;;;;;0.60;0.60;;;20.10;94.30;;;;;;5024478;28;20481;-67
2022/06/17 07:22:28;;;;;;;0.90;0.70;;;20.20;94.40;;;;;;5035655;28;20407;-67
2022/06/17 07:24:54;;;;;;;0.40;0.30;;;20.30;94.00;;;;;;5032957;28;20379;-67
2022/06/17 07:27:20;;;;;;;0.40;0.30;;;20.40;94.30;;;;;;5033461;28;20874;-67
2022/06/17 07:29:46;;;;;;;0.40;0.30;;;20.50;94.00;;;;;;5028692;28;20403;-67
2022/06/17 07:32:11;;;;;;;0.40;0.30;;;20.50;94.50;;;;;;5029299;28;20398;-67
2022/06/17 07:34:37;;;;;;;0.80;0.80;;;20.60;95.80;;;;;;5030139;28;20398;-66
2022/06/17 07:39:57;;;;;;;0.40;0.20;;;20.70;94.40;;;;;;5032423;28;20667;-66
2022/06/17 07:42:26;;;;;;;0.40;0.20;;;21.00;93.20;;;;;;5033438;28;20391;-66
2022/06/17 07:44:53;;;;;;;0.50;0.50;;;21.10;91.80;;;;;;5032205;28;20466;-66
2022/06/17 07:47:21;;;;;;;0.40;0.30;;;21.10;92.30;;;;;;5033050;28;20430;-66
2022/06/17 07:49:53;;;;;;;0.50;0.40;;;21.20;93.60;;;;;;5032186;28;20610;-66
2022/06/17 07:52:18;;;;;;;1.00;0.90;;;21.20;92.40;;;;;;5032778;28;20407;-66
2022/06/17 07:58:14;;;;;;;0.47;0.37;;;21.40;92.60;;;;;;4999724;28;20779;-66
2022/06/17 08:00:43;;;;;;;0.50;0.40;;;21.50;92.40;;;;;;5032168;28;20386;-66
2022/06/17 08:03:10;;;;;;;0.40;0.30;;;21.70;92.30;;;;;;5032907;28;20481;-66
2022/06/17 08:05:37;;;;;;;0.40;0.20;;;21.70;92.70;;;;;;5031690;28;20882;-66
2022/06/17 08:08:04;;;;;;;0.50;0.30;;;21.80;93.10;;;;;;5032555;28;20788;-66
2022/06/17 08:10:33;;;;;;;0.40;0.30;;;21.70;93.10;;;;;;5032382;28;20389;-66
2022/06/17 08:12:59;;;;;;;0.40;0.30;;;21.80;94.00;;;;;;5032329;28;20380;-66
2022/06/17 08:15:26;;;;;;;0.40;0.30;;;22.00;92.70;;;;;;5032278;28;20857;-67
2022/06/17 08:17:52;;;;;;;0.40;0.30;;;22.10;93.40;;;;;;5031641;28;20417;-67
2022/06/17 08:20:18;;;;;;;0.40;0.40;;;22.20;92.80;;;;;;5032353;28;20395;-66
2022/06/17 08:22:44;;;;;;;0.50;0.50;;;22.30;92.30;;;;;;5031746;28;20465;-66
2022/06/17 08:25:11;;;;;;;0.43;0.28;;;22.50;92.10;;;;;;5032427;28;20818;-66
2022/06/17 08:27:43;;;;;;;0.40;0.30;;;22.50;92.30;;;;;;5030478;28;20388;-66
2022/06/17 08:30:10;;;;;;;0.50;0.50;;;22.50;91.90;;;;;;5032424;28;20410;-66
2022/06/17 08:32:55;;;;;;;0.60;0.30;;;22.50;92.70;;;;;;5031240;28;20421;-66
2022/06/17 08:35:28;;;;;;;0.50;0.30;;;22.50;92.90;;;;;;5032189;28;20418;-66
2022/06/17 08:38:20;;;;;;;0.40;0.30;;;22.50;91.80;;;;;;5031526;28;20403;-66
2022/06/17 08:44:42;;;;;;;0.40;0.30;;;22.80;91.60;;;;;;5020973;28;20399;-66
2022/06/17 08:47:19;;;;;;;0.40;0.30;;;22.90;91.20;;;;;;5031341;28;20399;-66
2022/06/17 08:50:03;;;;;;;0.40;0.30;;;22.90;90.90;;;;;;5031065;28;20371;-66
2022/06/17 08:53:16;;;;;;;0.40;0.30;;;23.10;90.40;;;;;;5032217;28;20376;-66
2022/06/17 08:56:15;;;;;;;0.40;0.30;;;23.30;89.80;;;;;;4959865;28;20926;-66
2022/06/17 08:59:00;;;;;;;0.40;0.30;;;23.30;88.30;;;;;;5020421;28;20471;-66
2022/06/17 09:01:33;;;;;;;0.90;0.80;;;23.40;88.10;;;;;;5011672;28;20886;-66
2022/06/17 09:04:08;;;;;;;1.10;1.00;;;23.50;89.00;;;;;;5012094;28;20381;-66
2022/06/17 09:07:11;;;;;;;0.40;0.30;;;23.50;88.60;;;;;;5011367;28;20403;-66
2022/06/17 09:09:49;;;;;;;0.40;0.20;;;23.50;88.60;;;;;;5010915;28;20837;-66
2022/06/17 09:12:40;;;;;;;0.50;0.40;;;23.50;89.20;;;;;;5012068;28;20814;-66
2022/06/17 09:16:00;;;;;;;0.40;0.30;;;23.50;89.10;;;;;;5011304;28;20385;-66
2022/06/17 09:18:34;;;;;;;1.10;1.00;;;23.60;87.90;;;;;;4950712;29;20422;-66
2022/06/17 09:21:11;;;;;;;1.00;0.60;;;23.90;86.90;;;;;;5009776;28;20401;-66
2022/06/17 09:23:39;;;;;;;0.40;0.20;;;23.80;87.70;;;;;;5011079;28;20480;-66
2022/06/17 09:26:13;;;;;;;0.77;0.77;;;24.00;86.80;;;;;;5010537;28;20388;-66
2022/06/17 09:28:44;;;;;;;0.40;0.30;;;24.00;85.00;;;;;;5011052;28;20372;-66
2022/06/17 09:31:19;;;;;;;0.40;0.30;;;24.00;83.80;;;;;;5011827;28;20424;-66
2022/06/17 09:33:47;;;;;;;0.40;0.30;;;24.10;84.90;;;;;;5010677;28;20403;-66
2022/06/17 09:36:28;;;;;;;0.50;0.50;;;24.20;83.40;;;;;;5011347;28;20499;-66
2022/06/17 09:39:04;;;;;;;0.40;0.30;;;24.40;85.50;;;;;;5011236;28;20388;-67
2022/06/17 09:41:38;;;;;;;0.40;0.30;;;24.40;81.60;;;;;;5025557;28;20395;-67
2022/06/17 09:44:18;;;;;;;0.60;0.60;;;24.50;82.90;;;;;;5030239;28;20449;-67
2022/06/17 09:47:15;;;;;;;0.40;0.20;;;24.40;82.30;;;;;;5029945;28;20391;-67
2022/06/17 09:50:01;;;;;;;0.40;0.30;;;24.30;84.00;;;;;;5029637;28;20395;-66
2022/06/17 09:52:39;;;;;;;1.00;0.60;;;24.50;83.30;;;;;;5031008;28;20379;-67
2022/06/17 09:55:16;;;;;;;0.50;0.40;;;24.50;82.60;;;;;;5026077;28;20478;-68
2022/06/17 09:58:02;;;;;;;1.20;1.10;;;24.70;84.10;;;;;;5026224;28;20752;-67
2022/06/17 10:00:37;;;;;;;0.60;0.40;;;24.80;81.90;;;;;;5028230;28;20399;-69
2022/06/17 10:03:25;;;;;;;0.50;0.40;;;24.90;79.10;;;;;;5024972;28;20895;-68
2022/06/17 10:06:11;;;;;;;0.40;0.30;;;24.90;78.80;;;;;;5025915;28;20465;-67
2022/06/17 10:09:13;;;;;;;0.50;0.30;;;25.00;80.00;;;;;;5023586;28;20406;-68
2022/06/17 10:12:15;;;;;;;0.40;0.20;;;25.00;85.20;;;;;;5012687;28;20431;-68
2022/06/17 10:15:16;;;;;;;0.50;0.30;;;25.30;78.70;;;;;;5024624;28;20898;-68
2022/06/17 10:20:38;;;;;;;0.40;0.30;;;25.50;74.70;;;;;;5030364;28;20469;-68
2022/06/17 10:23:25;;;;;;;0.40;0.20;;;25.60;75.20;;;;;;5018970;28;20435;-68
2022/06/17 10:26:24;;;;;;;0.40;0.30;;;25.80;75.00;;;;;;5028091;28;20425;-68
2022/06/17 10:29:13;;;;;;;0.40;0.30;;;25.70;74.00;;;;;;5018843;28;20848;-67
2022/06/17 10:31:51;;;;;;;1.00;0.68;;;25.60;74.70;;;;;;5030210;28;20379;-68
2022/06/17 10:34:41;;;;;;;1.00;0.90;;;25.80;75.10;;;;;;5027995;28;20824;-68
2022/06/17 10:37:11;;;;;;;0.50;0.40;;;25.80;69.10;;;;;;5021287;28;20408;-68
2022/06/17 10:42:57;;;;;;;0.40;0.30;;;26.00;69.80;;;;;;4995819;28;20394;-68
2022/06/17 10:45:32;;;;;;;0.40;0.30;;;26.00;69.40;;;;;;4991996;28;20402;-68
2022/06/17 10:48:13;;;;;;;0.50;0.43;;;26.00;67.60;;;;;;4991242;28;20444;-68
2022/06/17 10:50:41;;;;;;;0.40;0.30;;;26.10;67.10;;;;;;4992338;28;20436;-68
2022/06/17 10:53:47;;;;;;;0.40;0.20;;;26.10;67.00;;;;;;5025169;28;20450;-67
2022/06/17 10:56:47;;;;;;;0.40;0.20;;;26.20;64.20;;;;;;5030779;28;20415;-67
2022/06/17 10:59:13;;;;;;;0.40;0.20;;;26.30;64.20;;;;;;5012292;28;20443;-68
2022/06/17 11:01:45;;;;;;;0.40;0.30;;;26.50;66.00;;;;;;5013975;28;20449;-67
2022/06/17 11:04:25;;;;;;;0.40;0.30;;;26.60;64.70;;;;;;5014304;28;20389;-68
2022/06/17 11:07:09;;;;;;;0.40;0.38;;;26.90;60.80;;;;;;5013401;28;20395;-67
2022/06/17 11:10:02;;;;;;;0.50;0.50;;;26.70;59.50;;;;;;5014080;28;20388;-67
2022/06/17 11:12:53;;;;;;;0.40;0.20;;;26.80;60.80;;;;;;5023794;28;20401;-67
2022/06/17 11:15:21;;;;;;;0.40;0.20;;;27.10;59.40;;;;;;5034151;28;20406;-67
2022/06/17 11:18:02;;;;;;;0.40;0.20;;;27.10;58.80;;;;;;5032499;28;20419;-67
2022/06/17 11:20:31;;;;;;;0.45;0.28;;;27.40;61.60;;;;;;5024393;28;20433;-67
2022/06/17 11:25:55;;;;;;;0.40;0.20;;;27.50;58.30;;;;;;5032085;28;20402;-67
2022/06/17 11:28:54;;;;;;;0.40;0.30;;;27.70;57.60;;;;;;5033188;28;20470;-67
2022/06/17 11:31:35;;;;;;;0.45;0.25;;;27.80;55.00;;;;;;5024069;28;20430;-67
2022/06/17 11:37:39;;;;;;;0.40;0.20;;;28.20;54.20;;;;;;4987594;28;20413;-68
2022/06/17 11:40:30;;;;;;;0.40;0.20;;;28.10;52.50;;;;;;5031876;28;21058;-67
2022/06/17 11:43:13;;;;;;;0.60;0.30;;;28.80;53.40;;;;;;5024526;28;20711;-67
2022/06/17 11:46:13;;;;;;;0.40;0.22;;;29.50;54.00;;;;;;5027195;28;20826;-67
2022/06/17 11:48:59;;;;;;;0.40;0.20;;;30.30;50.80;;;;;;5022815;28;20842;-67
2022/06/17 11:52:17;;;;;;;0.40;0.25;;;30.70;50.10;;;;;;5020515;28;20396;-67
2022/06/17 11:55:13;;;;;;;0.50;0.40;;;30.40;50.10;;;;;;4962873;28;20403;-67
2022/06/17 12:02:01;;;;;;;0.40;0.20;;;30.60;48.30;;;;;;4966494;28;20396;-67
2022/06/17 12:05:15;;;;;;;0.40;0.20;;;31.10;47.90;;;;;;4978704;28;20822;-68
2022/06/17 12:16:19;;;;;;;;;;;;;;;;;;;;;
2022/06/17 12:31:04;;;;;;;0.40;0.20;;;31.90;46.10;;;;;;4206137;22;21620;31
2022/06/17 12:33:58;;;;;;;1.50;0.50;;;31.30;46.00;;;;;;5041805;28;20432;-71
2022/06/17 12:36:30;;;;;;;0.40;0.20;;;31.10;48.80;;;;;;5051731;28;20385;-70
2022/06/17 12:39:41;;;;;;;0.40;0.20;;;30.90;46.10;;;;;;5052251;28;20547;-71
2022/06/17 12:42:47;;;;;;;0.40;0.20;;;31.00;44.30;;;;;;4971034;28;20393;-71
2022/06/17 12:45:41;;;;;;;0.50;0.50;;;29.70;50.90;;;;;;4993068;28;20425;-70
2022/06/17 12:48:07;;;;;;;0.50;0.40;;;30.30;46.80;;;;;;5016730;28;20450;-70
2022/06/17 12:54:12;;;;;;;0.40;0.20;;;30.50;46.00;;;;;;5019999;28;20397;-70
2022/06/17 12:57:07;;;;;;;0.40;0.20;;;30.10;46.50;;;;;;5051022;28;20393;-71
2022/06/17 12:59:39;;;;;;;0.40;0.30;;;30.10;48.10;;;;;;5050536;28;20444;-70
2022/06/17 13:02:37;;;;;;;0.40;0.30;;;30.10;46.80;;;;;;5051676;28;20397;-70
2022/06/17 13:05:17;;;;;;;0.70;0.50;;;30.40;46.30;;;;;;5035340;28;20841;-70
2022/06/17 13:08:14;;;;;;;0.40;0.30;;;30.70;46.30;;;;;;5050804;28;20412;-70
2022/06/17 13:11:06;;;;;;;0.50;0.30;;;30.80;49.30;;;;;;5050720;28;20541;-71
2022/06/17 13:13:53;;;;;;;0.40;0.40;;;30.80;50.70;;;;;;5050544;28;20377;-71
2022/06/17 13:16:50;;;;;;;0.40;0.30;;;31.00;48.30;;;;;;5051411;28;20388;-71
2022/06/17 13:19:45;;;;;;;0.40;0.20;;;31.40;45.60;;;;;;5051481;28;20384;-70
2022/06/17 13:22:21;;;;;;;0.40;0.20;;;30.40;48.90;;;;;;5017321;28;20440;-71
2022/06/17 13:24:57;;;;;;;0.40;0.30;;;30.60;50.00;;;;;;5050950;28;20384;-71
2022/06/17 13:27:30;;;;;;;0.40;0.20;;;31.20;50.80;;;;;;5050728;28;20401;-71
2022/06/17 13:30:12;;;;;;;0.40;0.20;;;31.60;47.10;;;;;;5051278;28;20384;-70
2022/06/17 13:33:13;;;;;;;0.55;0.45;;;31.70;49.60;;;;;;5049814;28;20542;-71
2022/06/17 13:35:55;;;;;;;0.40;0.20;;;31.90;47.20;;;;;;5046975;28;20456;-71
2022/06/17 13:38:27;;;;;;;0.40;0.20;;;31.90;49.20;;;;;;5051075;28;20781;-71
2022/06/17 13:41:10;;;;;;;0.40;0.22;;;32.00;50.10;;;;;;5051112;28;20465;-70
2022/06/17 13:44:02;;;;;;;0.40;0.20;;;32.20;50.30;;;;;;5049487;28;20457;-71
2022/06/17 13:46:48;;;;;;;0.40;0.20;;;31.60;47.20;;;;;;4952775;28;20892;-71
2022/06/17 13:49:40;;;;;;;0.40;0.20;;;31.80;49.30;;;;;;5050905;28;20385;-71
2022/06/17 13:52:24;;;;;;;0.40;0.20;;;31.30;49.10;;;;;;5050145;28;20393;-71
2022/06/17 13:55:45;;;;;;;0.40;0.20;;;31.70;49.30;;;;;;5050728;28;20439;-71
2022/06/17 13:58:35;;;;;;;0.40;0.20;;;30.90;48.40;;;;;;5016707;28;20493;-71
2022/06/17 14:01:21;;;;;;;0.40;0.30;;;31.00;48.80;;;;;;5050921;28;20800;-71
2022/06/17 14:03:59;;;;;;;0.40;0.20;;;31.20;51.60;;;;;;5050193;28;20499;-71
2022/06/17 14:06:26;;;;;;;0.40;0.20;;;31.10;51.00;;;;;;5049979;28;20417;-71
2022/06/17 14:09:28;;;;;;;0.40;0.20;;;31.10;47.40;;;;;;5050283;28;20829;-71
2022/06/17 14:11:55;;;;;;;0.60;0.40;;;31.20;48.60;;;;;;5049998;28;20468;-71
2022/06/17 14:14:32;;;;;;;0.80;0.80;;;31.00;46.20;;;;;;5050709;28;20507;-71
2022/06/17 14:17:06;;;;;;;0.40;0.30;;;31.40;49.50;;;;;;5031017;28;20436;-71
2022/06/17 14:20:15;;;;;;;0.50;0.40;;;31.00;48.40;;;;;;5029867;28;20394;-71
2022/06/17 14:23:23;;;;;;;0.40;0.20;;;31.30;52.20;;;;;;5029682;28;20379;-71
2022/06/17 14:26:01;;;;;;;0.40;0.30;;;31.10;50.90;;;;;;5029906;28;20477;-71
2022/06/17 14:28:46;;;;;;;0.50;0.50;;;31.40;50.70;;;;;;5030053;28;20383;-71